EDT,Max TemperatureF,Mean TemperatureF,Min TemperatureF,Max Dew PointF,MeanDew PointF,Min DewpointF,Max Humidity, Mean Humidity, Min Humidity, Max Sea Level PressureIn, Mean Sea Level PressureIn, Min Sea Level PressureIn, Max VisibilityMiles, Mean VisibilityMiles, Min VisibilityMiles, Max Wind SpeedMPH, Mean Wind SpeedMPH, Max Gust SpeedMPH,PrecipitationIn, CloudCover, Events, WindDirDegrees
2013-7-1,81,72,62,68,64,61,93,78,62,29.95,29.85,29.79,10,9,3,22,5,28,0.11,4,Rain,52
2013-7-2,82,72,62,69,64,61,100,81,62,30.06,29.96,29.90,10,6,0,10,4,13,T,5,Fog-Rain,125
2013-7-3,78,73,68,69,68,65,93,82,71,30.13,30.09,30.03,10,10,9,15,6,19,T,3,Rain,167
2013-7-4,71,69,66,69,66,64,100,90,79,30.18,30.14,30.09,10,6,1,15,6,19,1.72,7,Rain,155
2013-7-5,75,71,66,71,68,64,97,92,87,30.17,30.14,30.09,10,7,1,13,6,18,1.20,7,Rain-Thunderstorm,177
2013-7-6,76,72,68,70,68,66,97,88,79,30.15,30.12,30.09,10,8,1,16,7,23,1.29,6,Rain,182
2013-7-7,83,75,67,68,66,63,100,76,51,30.15,30.10,30.06,10,10,8,12,6,14,0.01,4,Rain,206
2013-7-8,87,76,65,71,68,63,97,74,51,30.17,30.13,30.07,10,10,8,12,6,14,0.00,0,,207
2013-7-9,89,81,73,74,71,68,87,71,55,30.16,30.08,30.03,10,9,2,14,7,19,0.05,2,Rain,215
2013-7-10,90,80,70,76,71,68,93,79,64,30.03,29.96,29.87,10,7,0,23,7,34,1.43,4,Fog-Rain-Thunderstorm,216
2013-7-11,85,76,67,70,68,62,100,79,58,30.01,29.97,29.94,10,6,0,16,6,21,0.00,6,Fog,300
2013-7-12,80,71,61,60,58,56,84,63,42,30.07,30.03,30.00,10,10,10,18,9,24,0.00,0,Rain,28
2013-7-13,81,72,63,68,63,59,90,74,58,30.10,30.06,30.02,10,10,10,16,8,21,0.04,1,Rain,68
2013-7-14,90,78,66,73,69,65,90,71,52,30.22,30.15,30.09,10,10,10,15,7,20,0.00,1,,110
2013-7-15,90,81,72,71,68,67,84,67,50,30.30,30.26,30.22,10,10,10,12,4,16,0.00,2,,124
2013-7-16,93,81,69,73,70,67,93,69,44,30.34,30.29,30.26,10,10,10,8,2,11,0.00,1,Rain,330
2013-7-17,95,84,72,73,71,69,93,70,46,30.31,30.26,30.19,10,10,7,12,3,15,0.00,1,Rain-Thunderstorm,3
2013-7-18,91,82,73,75,72,67,87,70,52,30.21,30.15,30.06,10,8,2,13,3,15,T,2,Rain-Thunderstorm,159
2013-7-19,91,81,71,75,72,68,93,75,56,30.07,30.01,29.94,10,9,5,17,7,20,0.00,1,Rain,207
2013-7-20,91,82,73,73,71,69,93,73,52,29.99,29.93,29.88,10,10,6,17,8,22,0.00,1,,218
2013-7-21,87,79,71,71,70,68,93,75,57,30.01,29.95,29.88,10,9,1,12,4,20,0.86,5,Rain-Thunderstorm,239
2013-7-22,79,76,72,72,71,68,93,88,82,29.97,29.88,29.79,10,7,1,13,6,16,0.86,7,Rain-Thunderstorm,218
2013-7-23,87,78,68,74,71,64,100,94,87,29.89,29.84,29.76,10,6,1,37,8,48,1.32,5,Rain-Thunderstorm,230
2013-7-24,79,71,63,68,62,58,93,74,52,29.96,29.89,29.81,10,10,10,13,6,17,0.00,3,Thunderstorm,345
2013-7-25,79,70,60,61,58,56,90,66,45,30.08,30.03,29.97,10,10,10,13,7,17,0.00,2,,29
2013-7-26,81,70,58,63,60,56,90,71,51,30.08,30.05,29.99,10,10,7,10,4,14,0.00,1,Rain,194
2013-7-27,78,71,64,66,64,61,93,81,69,29.98,29.93,29.88,10,9,5,13,5,16,0.02,5,Rain,239
2013-7-28,75,66,56,59,52,47,86,65,44,30.09,30.02,29.93,10,10,10,13,5,17,0.00,2,,284
2013-7-29,80,67,54,60,56,52,93,86,78,30.19,30.15,30.09,10,10,10,14,5,19,0.00,1,,214
2013-7-30,80,70,60,66,61,58,97,73,48,30.23,30.19,30.14,10,10,8,12,4,15,0.03,1,Rain,166
2013-7-31,74,69,64,68,65,62,97,88,79,30.17,30.07,29.97,10,9,3,14,5,18,0.16,8,Rain,175